Impacts METAR Board
IDs:

KLZZ - Lampasas Arpt, TX, US

Updated at: 0000 UTC 30 May 2020
Potential Impact None Slight Moderate High
Time 29/12Z 29/13Z 29/14Z 29/15Z 29/16Z 29/17Z 29/18Z 29/19Z 29/20Z 29/21Z 29/22Z 29/23Z 30/00Z
Temp64 67 71 73 75 77 80 82 83 83 83 83 81
Dewpt62 63 63 63 63 63 60 60 59 57 55 56 56
Altim30.12 30.15 30.16 30.16 30.16 30.16 30.16 30.15 30.16 30.15 30.13 30.11 30.10
VIS10 10 10 10 10 10 10 10 10 10 10 10 10
CIG-- -- -- -- -- -- -- -- -- -- -- -- --
CoverCLRCLRCLRCLRCLRSCTCLRCLRCLRCLRCLRCLRCLR
FltCatVFRVFRVFRVFRVFRVFRVFRVFRVFRVFRVFRVFRVFR
WX--------------------------
WDir360104050603030506090607060
WSpd4 5 8 11 9 7 10 6 8 10 9 6 7
WGst-- -- -- 14 -- -- 16 14 -- 19 16 -- --
Raw hourly METARs
KLZZ 291155Z AUTO 36004KT 10SM CLR 18/17 A3012 RMK AO2 60001 70004 T01800165 10197 20180
KLZZ 291255Z AUTO 01005KT 10SM CLR 20/17 A3015 RMK AO2 T01960170
KLZZ 291355Z AUTO 04008KT 10SM CLR 22/17 A3016 RMK AO2 T02150172
KLZZ 291455Z AUTO 05011G14KT 10SM CLR 23/17 A3016 RMK AO2 T02290172
KLZZ 291555Z AUTO 06009KT 10SM CLR 24/17 A3016 RMK AO2 T02390171
KLZZ 291655Z AUTO 03007KT 10SM SCT036 25/17 A3016 RMK AO2 T02520172
KLZZ 291755Z AUTO 03010G16KT 10SM CLR 27/16 A3016 RMK AO2 T02650156 10270 20180
KLZZ 291855Z AUTO 05006G14KT 10SM CLR 28/16 A3015 RMK AO2 T02760157
KLZZ 291955Z AUTO 06008KT 10SM CLR 28/15 A3016 RMK AO2 T02810148
KLZZ 292055Z AUTO 09010G19KT 10SM CLR 29/14 A3015 RMK AO2 T02850141
KLZZ 292155Z AUTO 06009G16KT 10SM CLR 29/13 A3013 RMK AO2 T02850130
KLZZ 292255Z AUTO 07006KT 10SM CLR 28/13 A3011 RMK AO2 T02840133
KLZZ 292355Z AUTO 06007KT 10SM CLR 27/13 A3010 RMK AO2 T02740131 10290 20265